Time;durP1;ratioP1;P1;durP2;ratioP2;P2;SDS_P1;SDS_P2;PMS_P1;PMS_P2;Temp;Humidity;BMP_temperature;BMP_pressure;BME280_temperature;BME280_humidity;BME280_pressure;Samples;Min_cycle;Max_cycle;Signal;HPM_P1;HPM_P2
2022/03/17 00:01:08;;;;;;;123.00;68.10;;;;;;;11.33;86.86;101431.44;6281970;22;20039;-89
2022/03/17 00:03:34;;;;;;;125.35;68.97;;;;;;;11.38;87.10;101433.69;6283320;22;19999;-85
2022/03/17 00:06:05;;;;;;;121.55;70.70;;;;;;;11.26;87.65;101427.72;6284006;22;20015;-84
2022/03/17 00:08:32;;;;;;;124.65;69.97;;;;;;;11.20;89.35;101432.78;6287042;22;20007;-86
2022/03/17 00:11:01;;;;;;;124.57;73.68;;;;;;;11.27;89.42;101437.34;6235899;22;20069;-89
2022/03/17 00:13:27;;;;;;;124.07;70.95;;;;;;;11.32;89.33;101426.31;6299386;22;20047;-92
2022/03/17 00:16:03;;;;;;;125.38;70.38;;;;;;;11.52;87.48;101427.91;6294284;22;20308;-86
2022/03/17 00:18:33;;;;;;;123.25;71.93;;;;;;;11.48;88.19;101434.50;6267394;22;20016;-85
2022/03/17 00:21:02;;;;;;;128.82;71.10;;;;;;;11.42;88.43;101429.75;6297133;22;20018;-87
2022/03/17 00:23:29;;;;;;;130.70;74.05;;;;;;;11.31;89.56;101430.78;6274868;22;20267;-88
2022/03/17 00:25:56;;;;;;;126.95;74.18;;;;;;;11.34;89.42;101427.00;6294328;22;20011;-87
2022/03/17 00:28:22;;;;;;;128.43;74.05;;;;;;;11.27;90.29;101429.38;6267208;22;20101;-84
2022/03/17 00:30:47;;;;;;;130.65;76.93;;;;;;;11.33;90.09;101433.28;6295429;22;20007;-88
2022/03/17 00:33:13;;;;;;;130.65;74.93;;;;;;;11.15;91.64;101435.00;6265935;22;20016;-88
2022/03/17 00:35:39;;;;;;;131.20;74.60;;;;;;;11.32;90.33;101436.91;6266165;22;20011;-88
2022/03/17 00:38:31;;;;;;;127.85;72.80;;;;;;;11.30;90.83;101437.06;6293848;22;20011;-86
2022/03/17 00:40:57;;;;;;;138.88;74.18;;;;;;;11.47;90.03;101437.31;6287397;22;20359;-86
2022/03/17 00:43:24;;;;;;;124.70;73.72;;;;;;;11.60;88.29;101435.16;6291641;22;20003;-84
2022/03/17 00:45:50;;;;;;;130.90;74.43;;;;;;;11.53;88.37;101439.38;6265579;22;20011;-84
2022/03/17 00:48:15;;;;;;;125.95;72.20;;;;;;;11.57;88.78;101443.38;6299659;22;19992;-85
2022/03/17 00:50:42;;;;;;;125.80;73.13;;;;;;;11.69;87.54;101435.09;6300000;22;20018;-85
2022/03/17 00:53:07;;;;;;;124.05;70.60;;;;;;;11.75;86.91;101434.53;6262450;22;20090;-82
2022/03/17 00:55:33;;;;;;;124.22;74.15;;;;;;;11.70;87.02;101436.78;6299960;22;20063;-85
2022/03/17 00:57:59;;;;;;;126.68;71.65;;;;;;;11.82;86.51;101432.97;6299061;22;20004;-84
2022/03/17 01:00:25;;;;;;;131.23;72.75;;;;;;;11.85;85.42;101430.03;6272449;22;20006;-83
2022/03/17 01:02:53;;;;;;;123.18;71.78;;;;;;;11.93;86.02;101439.06;6294095;22;20012;-88
2022/03/17 01:05:20;;;;;;;121.15;73.63;;;;;;;11.75;85.76;101431.06;6297669;22;20019;-85
2022/03/17 01:07:46;;;;;;;120.72;71.75;;;;;;;11.75;86.37;101428.41;6302377;22;20025;-89
2022/03/17 01:10:16;;;;;;;122.00;70.70;;;;;;;11.62;86.70;101422.56;6329736;22;20007;-84
2022/03/17 01:12:46;;;;;;;118.85;68.22;;;;;;;11.78;85.59;101428.94;6327448;22;20007;-87
2022/03/17 01:15:13;;;;;;;116.40;67.68;;;;;;;11.77;83.69;101426.41;6316644;22;20014;-90
2022/03/17 01:17:42;;;;;;;113.78;66.50;;;;;;;11.93;82.43;101427.44;6311327;22;20011;-88
2022/03/17 01:20:09;;;;;;;115.18;64.78;;;;;;;11.75;82.50;101426.59;6311588;22;20082;-89
2022/03/17 01:22:35;;;;;;;117.53;66.57;;;;;;;11.72;83.00;101423.38;6310851;22;20102;-87
2022/03/17 01:25:01;;;;;;;119.00;66.60;;;;;;;11.73;82.62;101425.06;6258736;22;20015;-90
2022/03/17 01:27:29;;;;;;;112.50;64.32;;;;;;;11.67;82.71;101430.91;6312519;22;20057;-89
2022/03/17 01:29:55;;;;;;;113.80;65.65;;;;;;;11.71;83.22;101427.00;6311611;22;20007;-88
2022/03/17 01:32:22;;;;;;;108.95;63.55;;;;;;;11.71;83.04;101419.88;6284337;22;20003;-84
2022/03/17 01:34:49;;;;;;;110.18;63.63;;;;;;;11.67;82.85;101415.81;6312450;22;20022;-86
2022/03/17 01:37:15;;;;;;;109.07;64.72;;;;;;;11.76;82.58;101420.28;6311736;22;20342;-85
2022/03/17 01:39:41;;;;;;;119.43;66.03;;;;;;;11.68;82.92;101409.53;6310563;22;20011;-89
2022/03/17 01:42:09;;;;;;;120.75;67.07;;;;;;;11.70;82.04;101410.25;6284757;22;20003;-90
2022/03/17 01:44:36;;;;;;;109.80;65.28;;;;;;;11.58;83.18;101416.69;6311546;22;20003;-86
2022/03/17 01:49:46;;;;;;;116.00;64.45;;;;;;;11.52;83.95;101414.63;6312429;22;20014;-89
2022/03/17 01:52:12;;;;;;;120.50;65.63;;;;;;;11.63;82.91;101411.81;6313770;22;20007;-90
2022/03/17 01:54:38;;;;;;;112.28;65.97;;;;;;;11.33;85.06;101406.75;6285990;22;20039;-90
2022/03/17 01:57:07;;;;;;;119.97;65.70;;;;;;;11.39;84.41;101408.81;6312939;22;20326;-89
2022/03/17 01:59:35;;;;;;;117.13;67.57;;;;;;;11.36;85.15;101406.47;6285788;22;20014;-92
2022/03/17 02:02:06;;;;;;;116.65;66.85;;;;;;;11.37;85.31;101419.56;6313120;22;20082;-90
2022/03/17 02:04:31;;;;;;;117.18;68.15;;;;;;;11.48;84.88;101418.56;6288129;22;20007;-91
2022/03/17 02:07:05;;;;;;;119.00;68.70;;;;;;;11.65;84.36;101412.47;6287619;22;20003;-83
2022/03/17 02:09:35;;;;;;;118.20;66.95;;;;;;;11.54;83.97;101410.00;6291486;22;20034;-92
2022/03/17 02:15:08;;;;;;;125.70;68.15;;;;;;;11.66;83.95;101408.00;6292685;22;20350;-87
2022/03/17 02:17:39;;;;;;;114.70;66.85;;;;;;;11.73;83.02;101415.25;6315014;22;20007;-87
2022/03/17 02:20:08;;;;;;;112.47;68.78;;;;;;;11.53;84.69;101418.97;6314290;22;20029;-86
2022/03/17 02:22:49;;;;;;;120.18;68.93;;;;;;;11.54;84.64;101410.00;6315050;22;20010;-84
2022/03/17 02:25:36;;;;;;;122.35;68.47;;;;;;;11.48;84.96;101420.38;6313963;22;20512;-88
2022/03/17 02:28:07;;;;;;;120.22;69.93;;;;;;;11.36;85.37;101412.63;6311829;22;20014;-87
2022/03/17 02:30:35;;;;;;;111.80;65.72;;;;;;;11.40;85.56;101421.13;6283802;22;20011;-89
2022/03/17 02:33:10;;;;;;;120.82;68.30;;;;;;;11.11;87.68;101415.03;6311840;22;20094;-89
2022/03/17 02:36:13;;;;;;;117.38;69.45;;;;;;;11.16;87.64;101415.47;6314867;22;20015;-91
2022/03/17 02:38:40;;;;;;;131.60;69.57;;;;;;;11.20;87.87;101416.84;6325678;22;20021;-84
2022/03/17 02:41:06;;;;;;;125.45;71.25;;;;;;;11.01;89.13;101416.88;6306240;22;20000;-85
2022/03/17 02:43:31;;;;;;;127.75;69.68;;;;;;;10.98;89.84;101420.66;6335750;22;20034;-85
2022/03/17 02:45:57;;;;;;;123.22;70.43;;;;;;;11.15;88.85;101414.63;6330655;22;20003;-86
2022/03/17 02:48:25;;;;;;;124.70;70.28;;;;;;;11.28;88.04;101420.44;6312813;22;20011;-85
2022/03/17 02:50:51;;;;;;;121.10;70.40;;;;;;;11.36;87.62;101411.78;6313457;22;20094;-84
2022/03/17 02:53:18;;;;;;;122.78;69.13;;;;;;;11.42;86.58;101416.50;6308441;22;20043;-85
2022/03/17 02:55:44;;;;;;;123.43;67.97;;;;;;;11.66;84.56;101413.31;6318443;22;20003;-84
2022/03/17 02:58:11;;;;;;;122.03;69.80;;;;;;;11.66;85.13;101414.16;6328749;22;20071;-84
2022/03/17 03:00:40;;;;;;;128.85;70.70;;;;;;;11.73;83.67;101417.91;6301534;22;20037;-88
2022/03/17 03:03:06;;;;;;;121.00;70.75;;;;;;;11.57;84.38;101425.63;6324993;22;20034;-89
2022/03/17 03:05:32;;;;;;;119.18;68.53;;;;;;;11.65;83.77;101416.94;6318891;22;20335;-88
2022/03/17 03:07:57;;;;;;;127.70;68.35;;;;;;;11.64;83.91;101424.06;6289892;22;20499;-88
2022/03/17 03:10:23;;;;;;;118.85;66.70;;;;;;;11.59;83.97;101429.00;6325875;22;20007;-88
2022/03/17 03:12:49;;;;;;;124.03;70.53;;;;;;;11.57;84.73;101425.63;6324845;22;20003;-85
2022/03/17 03:15:14;;;;;;;121.93;68.63;;;;;;;11.64;83.87;101426.72;6326807;22;20012;-88
2022/03/17 03:17:40;;;;;;;122.53;68.68;;;;;;;11.55;84.61;101421.47;6322606;22;20045;-88
2022/03/17 03:20:07;;;;;;;114.15;65.75;;;;;;;11.58;84.92;101422.00;6300587;22;20007;-87
2022/03/17 03:22:39;;;;;;;122.95;69.22;;;;;;;11.67;84.29;101421.13;6328053;22;20010;-85
2022/03/17 03:25:07;;;;;;;120.27;67.33;;;;;;;11.65;84.08;101431.06;6297624;22;20022;-88
2022/03/17 03:27:32;;;;;;;123.35;69.30;;;;;;;11.40;85.65;101429.09;6325538;22;20011;-85
2022/03/17 03:29:58;;;;;;;124.22;69.07;;;;;;;11.58;85.22;101427.31;6323345;22;20362;-88
2022/03/17 03:32:28;;;;;;;116.95;67.93;;;;;;;11.49;85.44;101430.03;6316359;22;20010;-93
2022/03/17 03:34:54;;;;;;;123.15;69.30;;;;;;;11.36;85.99;101427.69;6289502;22;20019;-88
2022/03/17 03:37:29;;;;;;;124.63;68.55;;;;;;;11.48;85.57;101431.00;6318481;22;20503;-92
2022/03/17 03:39:56;;;;;;;121.45;67.38;;;;;;;11.27;86.83;101431.19;6316649;22;20007;-90
2022/03/17 03:42:24;;;;;;;118.75;69.03;;;;;;;11.47;85.64;101430.16;6261579;22;20015;-89
2022/03/17 03:44:51;;;;;;;117.28;66.32;;;;;;;11.61;84.84;101432.34;6261864;22;20019;-90
2022/03/17 03:47:17;;;;;;;124.70;70.43;;;;;;;11.27;86.95;101428.53;6260845;22;20023;-92
2022/03/17 03:49:44;;;;;;;124.82;68.28;;;;;;;11.28;87.14;101430.22;6316044;22;20011;-89
2022/03/17 03:52:12;;;;;;;123.13;70.00;;;;;;;11.11;87.83;101438.91;6315867;22;20304;-87
2022/03/17 03:54:39;;;;;;;116.03;67.95;;;;;;;11.27;87.03;101434.69;6320791;22;20144;-87
2022/03/17 03:57:06;;;;;;;125.80;70.47;;;;;;;11.17;87.55;101444.50;6268028;22;20011;-92
2022/03/17 03:59:32;;;;;;;122.65;69.05;;;;;;;11.20;87.68;101440.75;6315287;22;20057;-91
2022/03/17 04:02:04;;;;;;;115.03;65.78;;;;;;;11.33;86.67;101443.91;6315802;22;20035;-90
2022/03/17 04:04:31;;;;;;;120.90;69.57;;;;;;;10.96;89.18;101443.00;6314871;22;20018;-88
2022/03/17 04:06:59;;;;;;;124.13;70.60;;;;;;;11.10;88.49;101443.38;6314496;22;20017;-90
2022/03/17 04:09:34;;;;;;;125.45;70.38;;;;;;;11.06;89.08;101443.84;6316095;22;20012;-90
2022/03/17 04:12:00;;;;;;;125.28;73.72;;;;;;;10.93;90.39;101445.94;6288513;22;20011;-90
2022/03/17 04:14:26;;;;;;;125.90;69.75;;;;;;;10.89;90.60;101448.03;6313667;22;20015;-93
2022/03/17 04:16:52;;;;;;;127.88;73.20;;;;;;;10.65;93.25;101453.78;6314901;22;20029;-90
2022/03/17 04:19:18;;;;;;;129.52;70.57;;;;;;;10.78;92.36;101449.03;6314382;22;20007;-89
2022/03/17 04:21:45;;;;;;;130.88;71.78;;;;;;;10.76;93.16;101445.69;6314805;22;20011;-87
2022/03/17 04:24:14;;;;;;;133.88;73.10;;;;;;;10.57;95.21;101456.28;6314198;22;20019;-89
2022/03/17 04:26:40;;;;;;;133.05;72.93;;;;;;;10.55;95.90;101458.25;6289946;22;20076;-89
2022/03/17 04:29:06;;;;;;;120.70;69.35;;;;;;;10.88;93.02;101455.16;6290676;22;20063;-88
2022/03/17 04:31:34;;;;;;;120.72;67.85;;;;;;;10.77;92.83;101450.00;6316602;22;20000;-84
2022/03/17 04:34:00;;;;;;;122.53;69.70;;;;;;;10.67;93.26;101454.47;6300609;22;20019;-90
2022/03/17 04:36:25;;;;;;;131.88;71.00;;;;;;;10.52;94.18;101462.97;6329021;22;20008;-84
2022/03/17 04:41:37;;;;;;;123.20;70.43;;;;;;;10.55;93.40;101463.53;6213733;23;20012;-84
2022/03/17 04:44:09;;;;;;;114.28;67.40;;;;;;;10.50;93.56;101457.84;6213038;23;20029;-82
2022/03/17 04:46:58;;;;;;;127.88;66.70;;;;;;;10.48;94.05;101459.78;6212444;23;20040;-88
2022/03/17 04:49:24;;;;;;;119.35;65.82;;;;;;;10.51;93.24;101462.13;6203443;23;20005;-88
2022/03/17 04:51:54;;;;;;;119.10;65.13;;;;;;;10.53;93.32;101457.56;6208587;23;20004;-85
2022/03/17 04:54:22;;;;;;;118.45;65.10;;;;;;;10.50;93.56;101471.09;6212094;23;19989;-82
2022/03/17 04:56:50;;;;;;;127.35;66.78;;;;;;;10.48;93.83;101470.38;6205036;23;20016;-89
2022/03/17 04:59:19;;;;;;;126.90;68.93;;;;;;;10.51;93.20;101470.09;6191612;23;20009;-85
2022/03/17 05:01:44;;;;;;;123.13;65.57;;;;;;;10.60;92.49;101477.25;6190716;23;20016;-87
2022/03/17 05:04:10;;;;;;;117.70;67.35;;;;;;;10.58;92.51;101473.88;6193459;23;20017;-90
2022/03/17 05:06:36;;;;;;;121.00;68.43;;;;;;;10.53;92.99;101476.13;6191995;23;20016;-87
2022/03/17 05:09:02;;;;;;;113.47;63.40;;;;;;;10.58;92.79;101479.16;6192442;23;20337;-88
2022/03/17 05:11:28;;;;;;;118.95;65.10;;;;;;;10.59;92.73;101478.19;6215252;23;20017;-89
2022/03/17 05:13:58;;;;;;;125.35;67.90;;;;;;;10.53;93.16;101475.28;6221009;23;20088;-89
2022/03/17 05:16:32;;;;;;;117.85;67.85;;;;;;;10.31;95.51;101481.63;6196909;23;20009;-87
2022/03/17 05:18:58;;;;;;;128.95;68.90;;;;;;;10.36;95.29;101484.72;6202728;23;20440;-86
2022/03/17 05:21:25;;;;;;;122.72;70.43;;;;;;;10.37;95.45;101484.56;6145835;23;20020;-89
2022/03/17 05:23:53;;;;;;;125.75;67.43;;;;;;;10.19;97.22;101482.75;6192148;23;20005;-91
2022/03/17 05:26:22;;;;;;;129.85;69.70;;;;;;;10.29;97.00;101475.66;6170474;23;20060;-86
2022/03/17 05:28:48;;;;;;;132.05;71.88;;;;;;;10.28;96.83;101482.75;6208423;23;19989;-88
2022/03/17 05:31:13;;;;;;;124.47;68.20;;;;;;;10.42;96.16;101486.81;6213272;23;20016;-88
2022/03/17 05:33:39;;;;;;;137.95;70.28;;;;;;;10.36;96.54;101480.28;6213426;23;20005;-88
2022/03/17 05:36:07;;;;;;;119.47;67.85;;;;;;;10.58;95.39;101488.94;6203562;23;20100;-91
2022/03/17 05:38:33;;;;;;;122.15;67.25;;;;;;;10.87;93.40;101482.66;6193844;23;20110;-88
2022/03/17 05:41:00;;;;;;;123.13;69.15;;;;;;;10.66;93.99;101489.94;6194694;23;20013;-89
2022/03/17 05:43:25;;;;;;;129.85;69.00;;;;;;;10.56;94.71;101481.13;6143638;23;20027;-90
2022/03/17 05:45:52;;;;;;;126.05;69.13;;;;;;;10.42;95.76;101481.53;6195191;23;20013;-90
2022/03/17 05:48:18;;;;;;;125.70;68.28;;;;;;;10.50;95.60;101486.16;6192833;23;20031;-88
2022/03/17 05:50:46;;;;;;;130.68;69.22;;;;;;;10.51;96.06;101488.66;6190017;23;20021;-86
2022/03/17 05:53:15;;;;;;;121.82;69.22;;;;;;;10.33;96.93;101490.31;6164565;23;20017;-85
2022/03/17 05:55:43;;;;;;;128.77;70.40;;;;;;;10.39;96.73;101497.69;6186647;23;20009;-88
2022/03/17 05:58:09;;;;;;;126.13;69.75;;;;;;;10.51;96.45;101499.25;6188222;23;20009;-88
2022/03/17 06:00:35;;;;;;;125.05;68.50;;;;;;;10.55;95.13;101498.00;6190161;23;20091;-88
2022/03/17 06:03:03;;;;;;;129.75;70.07;;;;;;;10.68;94.90;101510.97;6164621;23;20020;-86
2022/03/17 06:05:29;;;;;;;127.55;70.63;;;;;;;10.61;95.65;101516.00;6189901;23;20009;-84
2022/03/17 06:08:05;;;;;;;131.77;71.07;;;;;;;10.69;94.46;101507.38;6190507;23;20047;-87
2022/03/17 06:10:32;;;;;;;118.75;66.13;;;;;;;10.50;96.39;101515.31;6188678;23;20507;-88
2022/03/17 06:13:00;;;;;;;126.65;70.22;;;;;;;10.69;95.48;101512.66;6190527;23;20033;-92
2022/03/17 06:15:26;;;;;;;130.65;69.07;;;;;;;10.46;97.18;101516.53;6167157;23;20020;-87
2022/03/17 06:17:57;;;;;;;122.05;69.30;;;;;;;10.59;97.42;101523.25;6165280;23;20026;-88
2022/03/17 06:20:29;;;;;;;132.52;72.22;;;;;;;10.34;99.22;101523.78;6165781;23;20040;-87
2022/03/17 06:23:00;;;;;;;132.20;70.20;;;;;;;10.59;97.99;101525.91;6186587;23;20069;-88
2022/03/17 06:25:28;;;;;;;131.48;69.80;;;;;;;10.59;97.77;101523.25;6191329;23;20378;-87
2022/03/17 06:27:58;;;;;;;130.02;71.35;;;;;;;10.60;97.79;101522.31;6190737;23;20023;-86
2022/03/17 06:30:26;;;;;;;131.90;71.65;;;;;;;10.51;98.01;101523.09;6191684;23;20329;-87
2022/03/17 06:32:52;;;;;;;129.75;68.75;;;;;;;10.47;98.55;101526.19;6188071;23;20005;-86
2022/03/17 06:35:20;;;;;;;122.63;70.43;;;;;;;10.29;100.00;101531.28;6188980;23;20088;-87
2022/03/17 06:37:56;;;;;;;132.15;74.43;;;;;;;10.35;100.00;101541.34;6189939;23;20069;-86
2022/03/17 06:40:23;;;;;;;135.68;71.13;;;;;;;10.50;100.00;101544.47;6189856;23;20064;-86
2022/03/17 06:42:53;;;;;;;134.70;72.07;;;;;;;10.40;100.00;101539.13;6186635;23;20096;-88
2022/03/17 06:45:19;;;;;;;131.77;71.80;;;;;;;10.25;100.00;101541.31;6188831;23;20020;-86
2022/03/17 06:47:44;;;;;;;133.43;72.38;;;;;;;10.35;100.00;101542.19;6186921;23;20100;-87
2022/03/17 06:50:12;;;;;;;130.85;70.78;;;;;;;10.34;100.00;101540.50;6188214;23;20013;-86
2022/03/17 06:52:38;;;;;;;136.55;71.95;;;;;;;10.19;100.00;101541.88;6186389;23;20060;-86
2022/03/17 06:55:04;;;;;;;142.05;74.50;;;;;;;10.21;100.00;101533.75;6189665;23;20009;-88
2022/03/17 06:57:30;;;;;;;139.75;73.35;;;;;;;10.43;100.00;101532.72;6188763;23;20009;-87
2022/03/17 06:59:58;;;;;;;135.98;72.72;;;;;;;10.27;100.00;101533.25;6189354;23;20009;-88
2022/03/17 07:02:24;;;;;;;135.60;73.00;;;;;;;10.24;100.00;101552.06;6188225;23;20042;-85
2022/03/17 07:04:50;;;;;;;124.15;70.55;;;;;;;10.34;100.00;101537.84;6192222;23;20020;-88
2022/03/17 07:07:16;;;;;;;122.97;68.40;;;;;;;10.08;100.00;101544.56;6188090;23;20036;-88
2022/03/17 07:09:41;;;;;;;124.10;69.85;;;;;;;10.14;100.00;101548.56;6192910;23;20010;-87
2022/03/17 07:12:10;;;;;;;128.38;70.78;;;;;;;10.25;100.00;101543.97;6191425;23;20115;-87
2022/03/17 07:14:36;;;;;;;128.45;70.05;;;;;;;10.29;100.00;101553.34;6163721;23;20040;-88
2022/03/17 07:17:01;;;;;;;128.90;69.07;;;;;;;10.21;100.00;101549.66;6187114;23;20375;-88
2022/03/17 07:19:27;;;;;;;127.28;70.13;;;;;;;10.01;100.00;101561.16;6161907;23;20100;-87
2022/03/17 07:21:54;;;;;;;125.25;69.50;;;;;;;10.11;100.00;101562.84;6186175;23;20017;-88
2022/03/17 07:24:20;;;;;;;127.25;69.35;;;;;;;10.17;100.00;101565.00;6185454;23;20445;-86
2022/03/17 07:26:47;;;;;;;127.90;69.22;;;;;;;10.15;100.00;101556.34;6186034;23;20025;-86
2022/03/17 07:29:12;;;;;;;125.50;68.93;;;;;;;10.22;100.00;101559.28;6187274;23;20013;-88
2022/03/17 07:31:38;;;;;;;132.65;68.20;;;;;;;10.22;100.00;101568.09;6187488;23;20021;-88
2022/03/17 07:34:04;;;;;;;116.75;66.88;;;;;;;10.40;100.00;101568.28;6187515;23;20051;-88
2022/03/17 07:36:30;;;;;;;133.00;70.40;;;;;;;10.27;100.00;101565.03;6186729;23;20329;-88
2022/03/17 07:38:57;;;;;;;119.47;66.63;;;;;;;10.24;100.00;101575.91;6189061;23;20013;-89
2022/03/17 07:41:24;;;;;;;132.48;71.13;;;;;;;10.01;100.00;101571.75;6188988;23;20059;-86
2022/03/17 07:43:50;;;;;;;128.48;69.50;;;;;;;10.22;100.00;101572.53;6191215;23;20418;-87
2022/03/17 07:46:34;;;;;;;126.75;68.85;;;;;;;10.26;100.00;101579.25;6194862;23;20023;-87
2022/03/17 07:49:11;;;;;;;122.70;66.53;;;;;;;10.26;100.00;101581.91;6190286;23;20017;-87
2022/03/17 07:51:39;;;;;;;127.75;68.85;;;;;;;10.06;100.00;101577.47;6196786;23;20071;-86
2022/03/17 07:54:05;;;;;;;132.55;71.75;;;;;;;10.20;100.00;101575.34;6203705;23;20322;-87
2022/03/17 07:56:31;;;;;;;128.82;67.30;;;;;;;10.08;100.00;101570.22;6191448;23;20041;-91
2022/03/17 07:58:56;;;;;;;129.43;70.55;;;;;;;10.24;100.00;101578.56;6193087;23;20009;-87
2022/03/17 08:01:25;;;;;;;121.45;67.50;;;;;;;10.31;100.00;101587.63;6190650;23;20065;-88
2022/03/17 08:03:55;;;;;;;122.20;68.18;;;;;;;10.37;100.00;101579.16;6183379;23;20441;-88
2022/03/17 08:06:25;;;;;;;131.23;70.90;;;;;;;10.36;100.00;101580.13;6188395;23;20013;-88
2022/03/17 08:08:52;;;;;;;124.47;68.32;;;;;;;10.23;100.00;101580.38;6185849;23;20032;-86
2022/03/17 08:11:17;;;;;;;127.45;70.88;;;;;;;10.28;100.00;101588.75;6189461;23;20063;-90
2022/03/17 08:13:45;;;;;;;129.38;73.88;;;;;;;10.02;100.00;101587.47;6189426;23;20044;-86
2022/03/17 08:16:12;;;;;;;124.75;70.82;;;;;;;10.14;100.00;101590.94;6192028;23;20017;-88
2022/03/17 08:18:38;;;;;;;130.40;71.00;;;;;;;10.36;100.00;101601.31;6191450;23;20013;-88
2022/03/17 08:21:04;;;;;;;129.95;69.45;;;;;;;10.34;100.00;101592.69;6183641;23;20143;-85
2022/03/17 08:23:29;;;;;;;135.25;73.50;;;;;;;10.36;100.00;101596.03;6186409;23;20015;-84
2022/03/17 08:25:55;;;;;;;124.70;68.72;;;;;;;10.51;100.00;101593.81;6178574;23;20459;-82
2022/03/17 08:28:21;;;;;;;125.25;70.72;;;;;;;10.43;100.00;101601.63;6184780;23;20009;-86
2022/03/17 08:30:48;;;;;;;134.13;71.63;;;;;;;10.34;100.00;101593.50;6185718;23;20013;-85
2022/03/17 08:33:15;;;;;;;126.75;68.43;;;;;;;10.16;100.00;101610.16;6185247;23;20005;-83
2022/03/17 08:35:42;;;;;;;131.75;72.25;;;;;;;10.22;100.00;101612.28;6185830;23;20005;-87
2022/03/17 08:38:08;;;;;;;128.80;72.25;;;;;;;10.43;100.00;101601.63;6187189;23;20009;-88
2022/03/17 08:40:35;;;;;;;131.00;73.13;;;;;;;10.33;100.00;101612.19;6185102;23;20020;-86
2022/03/17 08:43:02;;;;;;;134.90;71.28;;;;;;;10.34;100.00;101613.88;6185917;23;20020;-88
2022/03/17 08:50:55;;;;;;;137.55;77.65;;;;;;;10.44;100.00;101609.44;6158398;23;20005;-83
2022/03/17 08:53:21;;;;;;;140.23;73.07;;;;;;;10.48;100.00;101610.00;6184538;23;20460;-85
2022/03/17 08:55:46;;;;;;;131.70;72.60;;;;;;;10.48;100.00;101615.28;6184346;23;20016;-85
2022/03/17 08:58:12;;;;;;;132.07;74.28;;;;;;;10.53;100.00;101618.41;6185501;23;20001;-85
2022/03/17 09:00:40;;;;;;;134.93;72.32;;;;;;;10.73;100.00;101615.66;6183926;23;20103;-83
2022/03/17 09:03:07;;;;;;;128.88;72.65;;;;;;;10.68;100.00;101609.06;6183301;23;20005;-86
2022/03/17 09:05:36;;;;;;;130.07;72.70;;;;;;;10.69;100.00;101605.47;6185712;23;20044;-86
2022/03/17 09:08:06;;;;;;;127.00;72.05;;;;;;;10.67;100.00;101608.22;6185645;23;20016;-86
2022/03/17 09:10:34;;;;;;;131.25;73.10;;;;;;;10.74;100.00;101601.41;6185652;23;20013;-87
2022/03/17 09:13:05;;;;;;;134.43;72.95;;;;;;;10.78;100.00;101601.97;6184490;23;20499;-85
2022/03/17 09:15:32;;;;;;;104.63;56.17;;;;;;;10.72;100.00;101597.22;6186577;23;20344;-86
2022/03/17 09:17:59;;;;;;;141.75;75.78;;;;;;;10.58;100.00;101601.09;6185531;23;20013;-82
2022/03/17 09:20:29;;;;;;;141.10;75.70;;;;;;;10.56;100.00;101603.06;6184105;23;20016;-83
2022/03/17 09:22:56;;;;;;;143.60;75.72;;;;;;;10.68;100.00;101601.97;6185624;23;20009;-84
2022/03/17 09:25:25;;;;;;;140.68;76.45;;;;;;;10.67;100.00;101600.28;6185217;23;20064;-85
2022/03/17 09:27:51;;;;;;;139.82;75.65;;;;;;;10.51;100.00;101607.91;6186319;23;20741;-87
2022/03/17 09:30:17;;;;;;;141.18;73.28;;;;;;;10.78;100.00;101605.47;6185149;23;20005;-85
2022/03/17 09:32:45;;;;;;;131.95;73.65;;;;;;;10.83;100.00;101605.06;6185886;23;20009;-84
2022/03/17 09:35:11;;;;;;;135.13;74.55;;;;;;;10.97;100.00;101601.19;6185404;23;20013;-88
2022/03/17 09:37:37;;;;;;;136.10;76.32;;;;;;;10.84;100.00;101606.72;6158643;23;20044;-85
2022/03/17 09:40:05;;;;;;;137.00;75.32;;;;;;;11.18;100.00;101616.00;6183499;23;20020;-83
2022/03/17 09:42:36;;;;;;;135.17;73.50;;;;;;;11.17;99.85;101613.50;6183226;23;20036;-81
2022/03/17 09:45:03;;;;;;;133.25;76.75;;;;;;;11.32;98.92;101622.69;6182018;23;20019;-83
2022/03/17 09:47:37;;;;;;;139.35;75.20;;;;;;;11.15;100.00;101618.09;6185388;23;20012;-85
2022/03/17 09:50:06;;;;;;;139.82;74.75;;;;;;;11.28;98.77;101622.13;6183678;23;20084;-86
2022/03/17 09:52:32;;;;;;;139.18;76.28;;;;;;;10.96;100.00;101615.41;6182469;23;20456;-84
2022/03/17 09:54:58;;;;;;;138.30;77.45;;;;;;;10.81;100.00;101607.84;6185147;23;20009;-85
2022/03/17 09:57:24;;;;;;;141.50;76.68;;;;;;;11.03;100.00;101612.09;6184553;23;20054;-84
2022/03/17 09:59:53;;;;;;;140.88;77.03;;;;;;;11.20;100.00;101621.97;6183198;23;20422;-85
2022/03/17 10:02:24;;;;;;;137.13;75.18;;;;;;;11.17;100.00;101619.59;6184695;23;20005;-83
2022/03/17 10:04:49;;;;;;;146.93;77.85;;;;;;;11.07;100.00;101608.16;6185101;23;20036;-84
2022/03/17 10:07:20;;;;;;;134.65;74.50;;;;;;;11.23;100.00;101618.22;6185222;23;20092;-83
2022/03/17 10:09:48;;;;;;;135.73;77.27;;;;;;;11.22;100.00;101621.84;6184596;23;20079;-84
2022/03/17 10:12:17;;;;;;;138.68;77.25;;;;;;;11.08;100.00;101614.31;6185023;23;20005;-85
2022/03/17 10:14:46;;;;;;;148.43;77.28;;;;;;;11.01;100.00;101605.22;6185513;23;20013;-85
2022/03/17 10:17:28;;;;;;;136.45;75.20;;;;;;;11.34;100.00;101610.09;6184349;23;20009;-84
2022/03/17 10:20:17;;;;;;;140.30;76.93;;;;;;;11.20;100.00;101611.38;6183867;23;20059;-85
2022/03/17 10:22:48;;;;;;;136.13;76.40;;;;;;;11.46;100.00;101618.78;6183871;23;20017;-84
2022/03/17 10:25:22;;;;;;;139.48;76.25;;;;;;;11.41;100.00;101619.19;6181174;23;20067;-84
2022/03/17 10:27:54;;;;;;;133.52;76.68;;;;;;;11.64;98.63;101622.38;6185589;23;20127;-83
2022/03/17 10:30:35;;;;;;;131.00;74.37;;;;;;;11.39;99.84;101621.16;6184193;23;20013;-84
2022/03/17 10:33:01;;;;;;;141.63;78.88;;;;;;;11.30;100.00;101620.16;6185917;23;20035;-85
2022/03/17 10:35:36;;;;;;;143.13;77.07;;;;;;;11.40;100.00;101618.34;6185783;23;20014;-86
2022/03/17 10:38:09;;;;;;;141.88;75.07;;;;;;;11.55;99.45;101617.94;6185698;23;20036;-84
2022/03/17 10:40:35;;;;;;;138.52;76.68;;;;;;;11.52;98.78;101619.06;6190423;23;20101;-87
2022/03/17 10:43:22;;;;;;;140.43;77.55;;;;;;;11.29;100.00;101623.81;6187518;23;20429;-86
2022/03/17 10:46:04;;;;;;;138.68;77.10;;;;;;;11.39;100.00;101629.13;6202515;23;20015;-86
2022/03/17 10:48:30;;;;;;;135.93;75.00;;;;;;;11.49;100.00;101627.31;6200233;23;20043;-87
2022/03/17 10:50:55;;;;;;;134.77;75.82;;;;;;;11.64;99.48;101620.56;6187123;23;20005;-86
2022/03/17 10:53:27;;;;;;;136.18;75.22;;;;;;;11.54;100.00;101625.06;6187340;23;20017;-87
2022/03/17 10:56:12;;;;;;;127.07;76.55;;;;;;;11.63;99.95;101624.22;6187151;23;20040;-85
2022/03/17 10:58:46;;;;;;;135.68;75.05;;;;;;;11.42;100.00;101612.91;6184325;23;20009;-89
2022/03/17 11:01:12;;;;;;;125.95;72.38;;;;;;;11.64;100.00;101620.56;6159735;23;20013;-87
2022/03/17 11:03:38;;;;;;;129.88;74.88;;;;;;;11.43;100.00;101620.72;6186109;23;20013;-85
2022/03/17 11:06:06;;;;;;;140.07;73.55;;;;;;;11.54;100.00;101621.56;6186497;23;20016;-86
2022/03/17 11:08:32;;;;;;;128.45;74.40;;;;;;;11.59;100.00;101614.84;6187400;23;20090;-85
2022/03/17 11:10:58;;;;;;;123.13;69.15;;;;;;;11.74;100.00;101623.22;6187267;23;20036;-83
2022/03/17 11:13:24;;;;;;;132.45;71.63;;;;;;;11.66;100.00;101615.97;6188856;23;20021;-84
2022/03/17 11:16:01;;;;;;;137.70;75.15;;;;;;;11.62;100.00;101619.88;6185414;23;20009;-84
2022/03/17 11:18:33;;;;;;;128.52;73.68;;;;;;;11.47;100.00;101621.28;6184447;23;20016;-85